createdAt,value
2022-07-29T00:01:43.591Z,98567.97
2022-07-29T00:04:14.513Z,98568.72
2022-07-29T00:06:42.494Z,98569.69
2022-07-29T00:09:09.661Z,98561.63
2022-07-29T00:11:36.756Z,98557.44
2022-07-29T00:14:04.222Z,98552.41
2022-07-29T00:16:31.828Z,98547.78
2022-07-29T00:19:02.119Z,98547.63
2022-07-29T00:21:30.488Z,98551.22
2022-07-29T00:24:00.577Z,98553.53
2022-07-29T00:26:32.568Z,98545.47
2022-07-29T00:31:55.961Z,98541.13
2022-07-29T00:34:41.595Z,98547.19
2022-07-29T00:37:08.887Z,98546.63
2022-07-29T00:39:36.103Z,98540.84
2022-07-29T00:42:05.597Z,98549.66
2022-07-29T00:44:41.393Z,98542.16
2022-07-29T00:47:13.435Z,98547.34
2022-07-29T00:49:42.476Z,98549.22
2022-07-29T00:52:11.554Z,98544.19
2022-07-29T00:54:44.734Z,98539.09
2022-07-29T00:57:15.451Z,98539.94
2022-07-29T00:59:45.599Z,98532.47
2022-07-29T01:02:12.885Z,98536.97
2022-07-29T01:04:40.666Z,98534.78
2022-07-29T01:07:08.794Z,98529.31
2022-07-29T01:09:45.541Z,98526.88
2022-07-29T01:12:20.157Z,98522.38
2022-07-29T01:14:49.907Z,98520.13
2022-07-29T01:17:52.586Z,98518.09
2022-07-29T01:20:31.483Z,98521.84
2022-07-29T01:24:09.742Z,98523.56
2022-07-29T01:27:33.406Z,98519.81
2022-07-29T01:30:57.421Z,98526.16
2022-07-29T01:34:23.719Z,98514.06
2022-07-29T01:37:19.632Z,98510.91
2022-07-29T01:40:43.284Z,98514.34
2022-07-29T01:43:45.360Z,98509.00
2022-07-29T01:47:09.122Z,98501.06
2022-07-29T01:49:42.259Z,98508.00
2022-07-29T01:52:20.038Z,98512.91
2022-07-29T01:54:57.159Z,98513.47
2022-07-29T01:58:21.481Z,98513.47
2022-07-29T02:00:53.309Z,98518.94
2022-07-29T02:03:22.050Z,98515.63
2022-07-29T02:10:25.753Z,98507.97
2022-07-29T02:12:55.482Z,98508.75
2022-07-29T02:16:19.284Z,98506.31
2022-07-29T02:19:43.234Z,98500.00
2022-07-29T02:22:15.047Z,98503.81
2022-07-29T02:24:44.787Z,98497.47
2022-07-29T02:27:13.218Z,98499.44
2022-07-29T02:29:41.144Z,98498.09
2022-07-29T02:32:10.642Z,98508.50
2022-07-29T02:34:39.689Z,98498.47
2022-07-29T02:37:11.975Z,98500.78
2022-07-29T02:39:42.287Z,98497.03
2022-07-29T02:42:13.987Z,98499.78
2022-07-29T02:44:41.170Z,98496.91
2022-07-29T02:47:26.962Z,98494.59
2022-07-29T02:50:10.838Z,98492.44
2022-07-29T02:52:45.407Z,98491.84
2022-07-29T02:55:30.851Z,98487.81
2022-07-29T02:58:29.206Z,98494.59
2022-07-29T03:01:03.274Z,98506.88
2022-07-29T03:03:37.833Z,98501.22
2022-07-29T03:06:06.878Z,98490.72
2022-07-29T03:08:35.881Z,98497.63
2022-07-29T03:11:06.864Z,98498.50
2022-07-29T03:13:36.537Z,98505.09
2022-07-29T03:16:07.167Z,98503.09
2022-07-29T03:18:36.031Z,98501.81
2022-07-29T03:21:04.933Z,98508.84
2022-07-29T03:23:35.400Z,98502.72
2022-07-29T03:26:04.075Z,98503.75
2022-07-29T03:28:31.251Z,98505.06
2022-07-29T03:30:58.845Z,98500.78
2022-07-29T03:33:26.277Z,98500.00
2022-07-29T03:35:53.323Z,98500.78
2022-07-29T03:38:21.656Z,98498.97
2022-07-29T03:40:59.095Z,98502.28
2022-07-29T03:43:30.158Z,98503.09
2022-07-29T03:45:59.903Z,98502.84
2022-07-29T03:48:30.261Z,98501.72
2022-07-29T03:50:58.754Z,98503.44
2022-07-29T03:53:25.967Z,98510.50
2022-07-29T03:56:00.414Z,98513.81
2022-07-29T03:58:31.055Z,98513.34
2022-07-29T04:00:59.619Z,98515.97
2022-07-29T04:03:26.840Z,98514.59
2022-07-29T04:06:07.043Z,98513.34
2022-07-29T04:08:35.169Z,98513.03
2022-07-29T04:11:03.386Z,98524.03
2022-07-29T04:13:34.074Z,98522.19
2022-07-29T04:16:01.180Z,98528.41
2022-07-29T04:18:28.791Z,98526.91
2022-07-29T04:20:56.287Z,98532.81
2022-07-29T04:23:27.374Z,98527.81
2022-07-29T04:25:54.840Z,98531.03
2022-07-29T04:28:22.131Z,98543.69
2022-07-29T04:30:49.326Z,98545.59
2022-07-29T04:33:22.970Z,98538.97
2022-07-29T04:35:55.101Z,98538.53
2022-07-29T04:38:23.128Z,98539.81
2022-07-29T04:40:50.164Z,98530.59
2022-07-29T04:43:22.487Z,98532.75
2022-07-29T04:45:50.593Z,98531.59
2022-07-29T04:48:17.691Z,98533.63
2022-07-29T04:50:45.219Z,98538.50
2022-07-29T04:53:12.227Z,98529.28
2022-07-29T04:55:39.294Z,98533.94
2022-07-29T04:58:09.294Z,98541.72
2022-07-29T05:00:36.401Z,98538.84
2022-07-29T05:03:04.545Z,98541.59
2022-07-29T05:05:31.704Z,98549.34
2022-07-29T05:07:59.809Z,98551.81
2022-07-29T05:10:27.059Z,98548.78
2022-07-29T05:12:54.173Z,98544.47
2022-07-29T05:15:21.381Z,98549.94
2022-07-29T05:17:50.951Z,98544.31
2022-07-29T05:20:19.724Z,98552.66
2022-07-29T05:22:47.278Z,98552.66
2022-07-29T05:25:16.632Z,98552.41
2022-07-29T05:27:47.920Z,98553.84
2022-07-29T05:30:18.523Z,98552.63
2022-07-29T05:32:46.687Z,98553.84
2022-07-29T05:35:15.077Z,98552.84
2022-07-29T05:37:42.508Z,98556.44
2022-07-29T05:40:10.202Z,98559.97
2022-07-29T05:42:37.350Z,98553.59
2022-07-29T05:45:06.132Z,98565.66
2022-07-29T05:47:34.904Z,98559.16
2022-07-29T05:50:01.969Z,98567.28
2022-07-29T05:52:29.239Z,98573.59
2022-07-29T05:54:57.292Z,98573.66
2022-07-29T05:57:25.235Z,98565.38
2022-07-29T05:59:52.661Z,98565.13
2022-07-29T06:02:19.912Z,98576.63
2022-07-29T06:04:47.253Z,98580.78
2022-07-29T06:07:14.385Z,98581.97
2022-07-29T06:09:41.416Z,98573.31
2022-07-29T06:12:09.677Z,98576.63
2022-07-29T06:14:36.953Z,98572.66
2022-07-29T06:17:04.293Z,98573.81
2022-07-29T06:19:31.411Z,98571.94
2022-07-29T06:21:58.443Z,98576.63
2022-07-29T06:24:25.678Z,98577.44
2022-07-29T06:26:58.652Z,98576.91
2022-07-29T06:29:25.811Z,98579.13
2022-07-29T06:31:52.955Z,98580.38
2022-07-29T06:34:20.453Z,98582.94
2022-07-29T06:36:47.897Z,98583.72
2022-07-29T06:39:15.945Z,98590.00
2022-07-29T06:41:43.165Z,98588.75
2022-07-29T06:44:15.061Z,98595.03
2022-07-29T06:46:42.689Z,98594.13
2022-07-29T06:49:10.202Z,98596.72
2022-07-29T06:51:37.347Z,98591.81
2022-07-29T06:54:08.978Z,98595.03
2022-07-29T06:56:40.620Z,98596.66
2022-07-29T06:59:10.037Z,98601.41
2022-07-29T07:01:44.237Z,98589.00
2022-07-29T07:04:12.417Z,98595.84
2022-07-29T07:06:40.077Z,98597.66
2022-07-29T07:09:07.361Z,98594.34
2022-07-29T07:11:34.833Z,98598.66
2022-07-29T07:14:03.928Z,98596.59
2022-07-29T07:16:32.837Z,98595.19
2022-07-29T07:19:00.949Z,98609.06
2022-07-29T07:21:30.187Z,98603.84
2022-07-29T07:23:57.827Z,98605.41
2022-07-29T07:26:24.847Z,98603.53
2022-07-29T07:28:52.284Z,98610.06
2022-07-29T07:31:19.615Z,98612.31
2022-07-29T07:33:46.705Z,98622.81
2022-07-29T07:36:13.784Z,98622.13
2022-07-29T07:38:43.902Z,98627.69
2022-07-29T07:41:10.948Z,98621.47
2022-07-29T07:43:47.173Z,98624.59
2022-07-29T07:46:17.130Z,98622.84
2022-07-29T07:48:44.599Z,98619.38
2022-07-29T07:51:12.570Z,98611.31
2022-07-29T07:53:39.663Z,98629.41
2022-07-29T07:56:12.455Z,98622.81
2022-07-29T07:58:45.560Z,98617.41
2022-07-29T08:01:12.730Z,98606.47
2022-07-29T08:03:39.964Z,98612.44
2022-07-29T08:06:09.743Z,98620.78
2022-07-29T08:08:36.853Z,98621.78
2022-07-29T08:11:09.084Z,98619.31
2022-07-29T08:13:38.629Z,98621.72
2022-07-29T08:16:16.104Z,98614.31
2022-07-29T08:18:45.721Z,98611.97
2022-07-29T08:21:16.681Z,98608.16
2022-07-29T08:23:57.770Z,98619.63
2022-07-29T08:26:26.110Z,98612.53
2022-07-29T08:28:53.449Z,98621.88
2022-07-29T08:31:20.975Z,98616.13
2022-07-29T08:33:48.104Z,98611.91
2022-07-29T08:36:18.162Z,98612.94
2022-07-29T08:38:45.234Z,98615.47
2022-07-29T08:41:12.395Z,98616.13
2022-07-29T08:43:41.961Z,98610.53
2022-07-29T08:46:09.162Z,98617.22
2022-07-29T08:48:37.619Z,98611.59
2022-07-29T08:51:06.079Z,98608.50
2022-07-29T08:53:34.034Z,98607.38
2022-07-29T08:56:05.263Z,98610.16
2022-07-29T08:58:36.847Z,98605.63
2022-07-29T09:01:07.797Z,98599.66
2022-07-29T09:03:41.743Z,98605.16
2022-07-29T09:06:14.960Z,98612.94
2022-07-29T09:08:42.950Z,98611.91
2022-07-29T09:11:12.455Z,98615.47
2022-07-29T09:13:42.335Z,98614.94
2022-07-29T09:16:12.209Z,98619.91
2022-07-29T09:18:43.416Z,98615.41
2022-07-29T09:21:36.795Z,98623.09
2022-07-29T09:24:13.928Z,98623.91
2022-07-29T09:26:46.997Z,98613.06
2022-07-29T09:29:17.061Z,98613.25
2022-07-29T09:31:48.318Z,98619.06
2022-07-29T09:34:23.756Z,98617.97
2022-07-29T09:36:55.075Z,98618.81
2022-07-29T09:39:36.746Z,98611.31
2022-07-29T09:42:06.911Z,98608.72
2022-07-29T09:44:51.470Z,98603.91
2022-07-29T09:47:26.887Z,98603.81
2022-07-29T09:50:05.981Z,98596.34
2022-07-29T09:52:33.033Z,98594.16
2022-07-29T09:55:08.664Z,98581.34
2022-07-29T09:57:35.856Z,98591.50
2022-07-29T10:00:15.798Z,98591.72
2022-07-29T10:02:50.435Z,98589.25
2022-07-29T10:05:27.391Z,98586.72
2022-07-29T10:08:04.401Z,98588.28
2022-07-29T10:10:38.128Z,98585.94
2022-07-29T10:13:16.373Z,98592.34
2022-07-29T10:15:47.299Z,98589.13
2022-07-29T10:18:20.128Z,98589.97
2022-07-29T10:20:57.173Z,98585.63
2022-07-29T10:23:25.099Z,98582.59
2022-07-29T10:25:52.154Z,98581.44
2022-07-29T10:28:22.169Z,98577.94
2022-07-29T10:30:52.652Z,98567.41
2022-07-29T10:33:44.793Z,98571.72
2022-07-29T10:36:43.700Z,98575.81
2022-07-29T10:40:29.269Z,98567.69
2022-07-29T10:43:52.863Z,98562.91
2022-07-29T10:46:22.386Z,98552.63
2022-07-29T10:49:49.212Z,98556.75
2022-07-29T10:53:14.388Z,98554.00
2022-07-29T10:55:43.737Z,98550.22
2022-07-29T10:59:08.737Z,98541.84
2022-07-29T11:02:41.929Z,98552.53
2022-07-29T11:05:13.027Z,98562.91
2022-07-29T11:08:39.010Z,98562.28
2022-07-29T11:12:04.404Z,98556.09
2022-07-29T11:15:02.577Z,98554.16
2022-07-29T11:17:46.984Z,98551.13
2022-07-29T11:21:13.916Z,98567.94
2022-07-29T11:24:50.286Z,98584.56
2022-07-29T11:27:46.083Z,98610.13
2022-07-29T11:30:14.523Z,98658.31
2022-07-29T11:32:48.775Z,98694.59
2022-07-29T11:35:37.998Z,98727.94
2022-07-29T11:38:32.090Z,98709.00
2022-07-29T11:41:20.860Z,98647.44
2022-07-29T11:43:56.394Z,98601.75
2022-07-29T11:46:50.472Z,98613.38
2022-07-29T11:52:11.681Z,98668.06
2022-07-29T11:54:58.365Z,98663.72
2022-07-29T11:57:36.434Z,98670.47
2022-07-29T12:00:12.041Z,98668.81
2022-07-29T12:02:43.131Z,98672.88
2022-07-29T12:05:11.948Z,98669.16
2022-07-29T12:07:03.710Z,98653.09
2022-07-29T12:08:22.857Z,98669.16
2022-07-29T12:10:51.600Z,98655.88
2022-07-29T12:13:42.939Z,98655.88
2022-07-29T12:17:30.627Z,59048.13
2022-07-29T12:24:50.122Z,59048.13
2022-07-29T12:28:27.465Z,59048.13
2022-07-29T12:30:56.718Z,98638.34
2022-07-29T12:33:32.195Z,98641.63
2022-07-29T12:36:07.532Z,98638.31
2022-07-29T12:38:36.958Z,98636.31
2022-07-29T12:41:05.280Z,98649.00
2022-07-29T12:43:35.934Z,98642.69
2022-07-29T12:46:15.597Z,98639.22
2022-07-29T12:48:44.823Z,98647.81
2022-07-29T12:51:17.758Z,98639.66
2022-07-29T12:54:06.393Z,98644.19
2022-07-29T12:56:44.362Z,98621.50
2022-07-29T12:59:13.849Z,98631.56
2022-07-29T13:01:45.118Z,98631.25
2022-07-29T13:04:25.578Z,98630.78
2022-07-29T13:07:54.937Z,98635.50
2022-07-29T13:10:19.559Z,98630.22
2022-07-29T13:13:29.740Z,98637.34
2022-07-29T13:16:34.729Z,98637.81
2022-07-29T13:19:12.185Z,98633.53
2022-07-29T13:22:17.368Z,98637.31
2022-07-29T13:25:22.254Z,98646.91
2022-07-29T13:27:49.730Z,98660.03
2022-07-29T13:30:54.952Z,98671.34
2022-07-29T13:34:05.547Z,98677.09
2022-07-29T13:37:10.768Z,98659.00
2022-07-29T13:39:42.369Z,98667.66
2022-07-29T13:43:03.017Z,98661.81
2022-07-29T13:45:31.505Z,98654.22
2022-07-29T13:48:36.625Z,98667.00
2022-07-29T13:51:44.731Z,98656.63
2022-07-29T13:54:12.197Z,98649.09
2022-07-29T13:56:40.606Z,98650.59
2022-07-29T13:59:11.523Z,98651.09
2022-07-29T14:02:17.283Z,98640.00
2022-07-29T14:04:44.728Z,98634.19
2022-07-29T14:07:16.271Z,98615.16
2022-07-29T14:09:46.990Z,98607.22
2022-07-29T14:12:14.519Z,98609.69
2022-07-29T14:14:44.868Z,98602.31
2022-07-29T14:17:16.233Z,98600.69
2022-07-29T14:19:44.185Z,98610.22
2022-07-29T14:22:12.082Z,98606.38
2022-07-29T14:24:40.236Z,98614.19
2022-07-29T14:27:09.011Z,98605.28
2022-07-29T14:29:38.810Z,98612.47
2022-07-29T14:32:11.141Z,98618.00
2022-07-29T14:34:39.374Z,98618.06
2022-07-29T14:37:07.741Z,98621.13
2022-07-29T14:39:42.860Z,98619.91
2022-07-29T14:42:13.132Z,98622.38
2022-07-29T14:44:43.378Z,98615.03
2022-07-29T14:47:12.487Z,98614.19
2022-07-29T14:49:40.224Z,98619.00
2022-07-29T14:52:10.610Z,98624.50
2022-07-29T14:54:38.166Z,98632.16
2022-07-29T14:57:07.828Z,98629.97
2022-07-29T14:59:35.773Z,98631.44
2022-07-29T15:02:03.877Z,98622.72
2022-07-29T15:04:31.677Z,98629.63
2022-07-29T15:06:59.105Z,98633.72
2022-07-29T15:09:26.514Z,98630.53
2022-07-29T15:11:56.936Z,98633.34
2022-07-29T15:14:24.560Z,98634.63
2022-07-29T15:16:52.754Z,98639.97
2022-07-29T15:19:20.798Z,98628.06
2022-07-29T15:21:49.200Z,98631.84
2022-07-29T15:24:20.097Z,98631.84
2022-07-29T15:26:48.492Z,98629.13
2022-07-29T15:29:19.416Z,98632.44
2022-07-29T15:31:47.239Z,98633.59
2022-07-29T15:34:17.572Z,98629.09
2022-07-29T15:36:53.318Z,98632.09
2022-07-29T15:39:22.412Z,98637.84
2022-07-29T15:41:52.760Z,98639.41
2022-07-29T15:44:20.998Z,98638.91
2022-07-29T15:47:04.385Z,98637.00
2022-07-29T15:49:47.887Z,98638.53
2022-07-29T15:52:24.749Z,98629.16
2022-07-29T15:54:57.696Z,98638.03
2022-07-29T15:57:29.940Z,98630.06
2022-07-29T15:59:57.422Z,98624.78
2022-07-29T16:02:27.113Z,98630.00
2022-07-29T16:04:55.066Z,98623.44
2022-07-29T16:07:22.559Z,98626.53
2022-07-29T16:09:53.319Z,98631.50
2022-07-29T16:12:20.977Z,98627.72
2022-07-29T16:14:49.483Z,98627.19
2022-07-29T16:17:17.734Z,98634.91
2022-07-29T16:19:46.119Z,98639.63
2022-07-29T16:22:18.871Z,98634.97
2022-07-29T16:24:49.334Z,98639.91
2022-07-29T16:27:27.044Z,98627.81
2022-07-29T16:30:09.520Z,98628.00
2022-07-29T16:32:40.193Z,98627.13
2022-07-29T16:35:08.464Z,98625.06
2022-07-29T16:37:37.093Z,98622.09
2022-07-29T16:40:05.182Z,98626.50
2022-07-29T16:42:46.439Z,98617.63
2022-07-29T16:45:16.359Z,98622.19
2022-07-29T16:47:45.638Z,98634.59
2022-07-29T16:50:13.420Z,98632.88
2022-07-29T16:52:41.242Z,98638.16
2022-07-29T16:55:08.966Z,98628.88
2022-07-29T16:57:36.841Z,98632.13
2022-07-29T17:00:11.330Z,98623.84
2022-07-29T17:02:39.161Z,98639.53
2022-07-29T17:05:10.770Z,98629.72
2022-07-29T17:07:43.833Z,98636.63
2022-07-29T17:10:11.387Z,98631.75
2022-07-29T17:12:43.055Z,98638.69
2022-07-29T17:15:12.999Z,98648.69
2022-07-29T17:17:55.236Z,98645.13
2022-07-29T17:20:24.572Z,98642.91
2022-07-29T17:22:52.515Z,98648.00
2022-07-29T17:25:21.334Z,98638.03
2022-07-29T17:27:50.770Z,98643.50
2022-07-29T17:30:18.883Z,98645.25
2022-07-29T17:32:46.501Z,98639.59
2022-07-29T17:35:32.687Z,98637.84
2022-07-29T17:38:00.235Z,98641.81
2022-07-29T17:40:27.926Z,98643.72
2022-07-29T17:42:55.590Z,98649.50
2022-07-29T17:45:24.589Z,98652.63
2022-07-29T17:47:52.044Z,98650.56
2022-07-29T17:50:19.523Z,98649.56
2022-07-29T17:52:47.029Z,98653.78
2022-07-29T17:55:14.488Z,98653.22
2022-07-29T17:57:42.295Z,98653.41
2022-07-29T18:00:10.851Z,98649.47
2022-07-29T18:02:38.598Z,98645.22
2022-07-29T18:05:06.280Z,98652.09
2022-07-29T18:07:33.752Z,98658.00
2022-07-29T18:10:01.388Z,98663.53
2022-07-29T18:12:28.857Z,98670.72
2022-07-29T18:14:56.289Z,98668.00
2022-07-29T18:17:52.730Z,98665.94
2022-07-29T18:20:13.990Z,98674.59
2022-07-29T18:22:44.253Z,98667.72
2022-07-29T18:25:11.889Z,98669.94
2022-07-29T18:27:41.871Z,98667.88
2022-07-29T18:30:09.648Z,98675.22
2022-07-29T18:32:40.032Z,98674.72
2022-07-29T18:35:10.647Z,98675.22
2022-07-29T18:38:01.264Z,98669.34
2022-07-29T18:40:26.482Z,98667.31
2022-07-29T18:42:57.164Z,98665.88
2022-07-29T18:45:28.485Z,98667.41
2022-07-29T18:47:56.989Z,98661.13
2022-07-29T18:50:29.533Z,98666.84
2022-07-29T18:52:58.829Z,98670.41
2022-07-29T18:55:32.139Z,98672.59
2022-07-29T18:58:02.917Z,98670.69
2022-07-29T19:00:30.884Z,98671.13
2022-07-29T19:02:58.793Z,98678.03
2022-07-29T19:05:26.480Z,98677.63
2022-07-29T19:07:56.024Z,98677.16
2022-07-29T19:10:23.641Z,98675.41
2022-07-29T19:12:51.329Z,98680.94
2022-07-29T19:15:20.260Z,98698.34
2022-07-29T19:17:51.268Z,98695.13
2022-07-29T19:20:19.189Z,98695.22
2022-07-29T19:22:49.631Z,98700.03
2022-07-29T19:25:19.749Z,98694.91
2022-07-29T19:27:47.404Z,98703.25
2022-07-29T19:30:15.944Z,98710.81
2022-07-29T19:32:43.697Z,98716.13
2022-07-29T19:35:30.319Z,98719.06
2022-07-29T19:38:00.087Z,98727.44
2022-07-29T19:40:28.798Z,98725.53
2022-07-29T19:42:56.664Z,98728.34
2022-07-29T19:45:24.866Z,98726.44
2022-07-29T19:48:01.685Z,98730.53
2022-07-29T19:50:29.688Z,98726.13
2022-07-29T19:52:57.527Z,98726.47
2022-07-29T19:55:25.141Z,98726.94
2022-07-29T19:57:52.725Z,98729.38
2022-07-29T20:00:21.403Z,98734.72
2022-07-29T20:02:50.845Z,98730.66
2022-07-29T20:05:21.067Z,98722.28
2022-07-29T20:07:58.542Z,98718.50
2022-07-29T20:10:26.154Z,98724.38
2022-07-29T20:12:55.018Z,98719.06
2022-07-29T20:15:22.983Z,98722.81
2022-07-29T20:17:55.165Z,98724.25
2022-07-29T20:20:25.194Z,98719.97
2022-07-29T20:22:55.126Z,98723.47
2022-07-29T20:25:23.126Z,98730.31
2022-07-29T20:27:52.392Z,98722.97
2022-07-29T20:30:22.618Z,98727.38
2022-07-29T20:32:51.234Z,98729.66
2022-07-29T20:35:56.659Z,98736.28
2022-07-29T20:39:04.771Z,98733.75
2022-07-29T20:41:37.521Z,98728.66
2022-07-29T20:44:05.361Z,98736.59
2022-07-29T20:47:10.721Z,98748.72
2022-07-29T20:50:15.995Z,98736.13
2022-07-29T20:52:44.130Z,98734.31
2022-07-29T20:55:49.318Z,98739.81
2022-07-29T20:58:54.418Z,98740.03
2022-07-29T21:01:22.099Z,98740.66
2022-07-29T21:04:30.629Z,98742.78
2022-07-29T21:07:00.430Z,98746.56
2022-07-29T21:09:28.352Z,98742.50
2022-07-29T21:12:33.834Z,98744.53
2022-07-29T21:15:38.991Z,98744.53
2022-07-29T21:18:16.114Z,98748.13
2022-07-29T21:21:21.752Z,98747.72
2022-07-29T21:23:49.235Z,98755.06
2022-07-29T21:26:18.293Z,98745.97
2022-07-29T21:28:45.944Z,98747.41
2022-07-29T21:31:20.180Z,98749.75
2022-07-29T21:34:28.468Z,98750.88
2022-07-29T21:36:55.963Z,98755.66
2022-07-29T21:39:23.749Z,98755.22
2022-07-29T21:41:54.282Z,98751.59
2022-07-29T21:44:23.285Z,98765.59
2022-07-29T21:46:50.749Z,98758.97
2022-07-29T21:49:18.540Z,98767.91
2022-07-29T21:51:46.055Z,98758.81
2022-07-29T21:54:13.536Z,98764.16
2022-07-29T21:56:41.525Z,98759.41
2022-07-29T21:59:09.687Z,98762.41
2022-07-29T22:01:39.195Z,98763.00
2022-07-29T22:04:07.186Z,98764.88
2022-07-29T22:06:34.654Z,98765.28
2022-07-29T22:09:05.821Z,98767.03
2022-07-29T22:11:33.303Z,98761.25
2022-07-29T22:14:00.734Z,98758.63
2022-07-29T22:16:28.235Z,98769.63
2022-07-29T22:18:55.914Z,98760.69
2022-07-29T22:22:01.444Z,98767.47
2022-07-29T22:25:07.248Z,98772.69
2022-07-29T22:28:12.745Z,98770.22
2022-07-29T22:30:42.835Z,98773.97
2022-07-29T22:33:17.824Z,98777.00
2022-07-29T22:35:48.554Z,98785.78
2022-07-29T22:38:20.268Z,98781.75
2022-07-29T22:41:25.391Z,98773.09
2022-07-29T22:44:30.568Z,98769.88
2022-07-29T22:47:38.960Z,98767.16
2022-07-29T22:50:14.313Z,98777.38
2022-07-29T22:53:19.631Z,98774.94
2022-07-29T22:56:25.367Z,98768.06
2022-07-29T22:58:55.393Z,98767.22
2022-07-29T23:01:37.105Z,98770.53
2022-07-29T23:04:06.327Z,98771.53
2022-07-29T23:07:11.442Z,98772.38
2022-07-29T23:09:39.807Z,98776.78
2022-07-29T23:12:44.929Z,98766.53
2022-07-29T23:15:14.973Z,98761.97
2022-07-29T23:18:20.142Z,98767.72
2022-07-29T23:20:47.559Z,98760.50
2022-07-29T23:23:18.037Z,98764.25
2022-07-29T23:25:45.571Z,98770.88
2022-07-29T23:28:14.175Z,98761.56
2022-07-29T23:30:42.396Z,98765.91
2022-07-29T23:33:48.297Z,98763.88
2022-07-29T23:36:20.755Z,98767.38
2022-07-29T23:39:28.401Z,98764.28
2022-07-29T23:41:55.876Z,98764.41
2022-07-29T23:44:23.418Z,98758.72
2022-07-29T23:46:56.433Z,98771.41
2022-07-29T23:50:04.156Z,98765.47
2022-07-29T23:53:09.487Z,98764.81
2022-07-29T23:56:14.904Z,98773.00
2022-07-29T23:59:20.533Z,98772.41
